Latest Weather Observations for Warruwi

IDD60801

Issued at 9:51 am CST Monday 16 September 2019 (issued every 10 minutes, with the page automatically refreshed every 10 minutes)

About weather observations | Map of weather stations | Latest weather observations for NT | Other Formats
Station Details ID: 014401 Name: WARRUWI AIRPORT Lat: -11.65 Lon: 133.38 Height: 19.2 m
Data from the previous 72 hours. | See also: Recent months at Warruwi
Date/Time
CST
Temp
°C
App
Temp
°C
Dew
Point
°C
Rel
Hum
%
Delta-T
°C
Wind Press
QNH
hPa
Press
MSL
hPa
Rain since
9am
mm
Dir  Spd
km/h
Gust
km/h
Spd
kts
Gust
kts
16/09:30am 24.4 23.6 19.2 73 3.3 E 22 28 12 15 1017.3 1017.2 0.0
16/09:00am 24.1 23.7 19.4 75 3.0 E 20 30 11 16 1017.2 1017.1 0.0
16/08:30am 23.7 23.2 19.2 76 2.9 E 20 28 11 15 1017.0 1016.9 0.0
16/08:00am 23.4 23.0 18.9 76 2.9 E 19 24 10 13 1016.9 1016.8 0.0
16/07:30am 22.8 22.3 18.6 77 2.6 E 19 26 10 14 1016.6 1016.5 0.0
16/07:00am 22.8 22.3 17.9 74 3.1 E 17 22 9 12 1016.6 1016.5 0.0
16/06:30am 22.6 21.6 17.5 73 3.2 E 19 26 10 14 1016.2 1016.1 0.0
16/06:00am 22.6 22.1 17.7 74 3.0 E 17 24 9 13 1015.9 1015.8 0.0
16/05:30am 22.7 22.3 18.0 75 2.9 E 17 24 9 13 1015.8 1015.7 0.0
16/05:00am 22.8 22.8 18.1 75 2.9 ESE 15 20 8 11 1015.5 1015.4 0.0
16/04:30am 23.4 22.7 17.4 69 3.7 ESE 17 22 9 12 1015.3 1015.1 0.0
16/04:00am 23.6 23.0 17.6 69 3.7 ESE 17 24 9 13 1015.1 1014.9 0.0
16/03:30am 23.8 24.2 18.9 74 3.1 ESE 15 22 8 12 1014.9 1014.7 0.0
16/03:00am 24.0 24.6 20.3 80 2.4 E 17 24 9 13 1014.9 1014.7 0.0
16/02:30am 24.1 25.2 20.4 80 2.4 E 15 19 8 10 1014.9 1014.7 0.0
16/02:00am 24.3 24.4 20.0 77 2.8 E 19 26 10 14 1015.0 1014.8 0.0
16/01:30am 24.4 24.5 19.9 76 2.9 E 19 28 10 15 1015.1 1014.9 0.0
16/01:00am 24.5 25.6 20.4 78 2.7 E 15 24 8 13 1015.3 1015.1 0.0
16/12:30am 24.6 25.4 20.7 79 2.5 E 17 28 9 15 1015.7 1015.6 0.0
16/12:00am 24.6 25.9 20.9 80 2.4 E 15 20 8 11 1015.8 1015.7 0.0
 
Date/Time
CST
Temp
°C
App
Temp
°C
Dew
Point
°C
Rel
Hum
%
Delta-T
°C
Wind Press
QNH
hPa
Press
MSL
hPa
Rain since
9am
mm
Dir  Spd
km/h
Gust
km/h
Spd
kts
Gust
kts
15/11:30pm 24.6 25.9 20.9 80 2.4 E 15 20 8 11 1015.7 1015.6 0.0
15/11:00pm 24.6 27.1 21.1 81 2.3 ENE 9 15 5 8 1015.8 1015.7 0.0
15/10:30pm 24.7 26.8 21.0 80 2.4 ENE 11 20 6 11 1015.7 1015.6 0.0
15/10:00pm 24.7 27.2 21.0 80 2.4 E 9 15 5 8 1015.6 1015.5 0.0
15/09:30pm 24.6 27.3 20.7 79 2.5 ENE 7 13 4 7 1015.6 1015.5 0.0
15/09:00pm 24.6 27.2 20.5 78 2.7 ENE 7 15 4 8 1015.2 1015.0 0.0
15/08:30pm 24.7 27.6 21.0 80 2.4 ENE 7 15 4 8 1015.1 1014.9 0.0
15/08:00pm 24.8 27.7 21.1 80 2.4 ENE 7 17 4 9 1014.9 1014.7 0.0
15/07:30pm 24.8 27.5 20.7 78 2.7 ENE 7 13 4 7 1014.7 1014.5 0.0
15/07:00pm 25.0 27.4 20.0 74 3.2 NE 7 15 4 8 1014.3 1014.1 0.0
15/06:30pm 25.6 27.8 19.5 69 3.9 ENE 7 13 4 7 1014.1 1013.9 0.0
15/06:00pm 26.5 27.5 19.4 65 4.6 E 13 22 7 12 1014.1 1013.9 0.0
15/05:30pm 26.6 27.1 19.2 64 4.8 E 15 22 8 12 1014.0 1013.8 0.0
15/05:00pm 26.8 27.2 18.9 62 5.1 ENE 15 24 8 13 1013.9 1013.7 0.0
15/04:30pm 27.7 27.3 19.0 59 5.6 E 19 28 10 15 1013.9 1013.7 0.0
15/04:00pm 27.4 26.8 18.9 59 5.5 E 20 32 11 17 1013.8 1013.6 0.0
15/03:30pm 27.8 27.6 19.3 60 5.5 E 19 30 10 16 1014.0 1013.8 0.0
15/03:00pm 27.8 26.8 19.6 61 5.3 E 24 33 13 18 1014.1 1013.9 0.0
15/02:30pm 27.6 26.1 19.4 61 5.3 E 26 37 14 20 1014.3 1014.1 0.0
15/02:00pm 27.9 26.6 19.1 58 5.7 E 24 35 13 19 1014.4 1014.2 0.0
15/01:30pm 27.6 26.2 18.9 59 5.6 E 24 37 13 20 1014.8 1014.6 0.0
15/01:00pm 28.1 26.9 19.3 58 5.7 E 24 33 13 18 1015.3 1015.1 0.0
15/12:30pm 28.1 27.1 18.8 57 6.0 E 22 33 12 18 1015.8 1015.7 0.0
15/12:00pm 27.4 25.3 18.1 57 5.9 E 26 37 14 20 1016.1 1016.0 0.0
15/11:30am 27.2 25.4 17.9 56 5.9 E 24 37 13 20 1016.5 1016.4 0.0
15/11:00am 26.6 24.3 17.7 58 5.6 E 26 33 14 18 1016.9 1016.8 0.0
15/10:30am 26.3 23.8 17.1 57 5.7 E 26 35 14 19 1017.2 1017.1 0.0
15/10:00am 26.3 24.2 16.3 54 6.2 E 22 37 12 20 1017.2 1017.1 0.0
15/09:30am 25.2 22.1 15.5 55 5.9 ESE 26 37 14 20 1017.3 1017.2 0.0
15/09:00am 25.0 22.2 15.3 55 5.8 ESE 24 37 13 20 1017.4 1017.3 0.0
15/08:30am 24.3 21.6 14.7 55 5.7 ESE 22 32 12 17 1017.2 1017.1 0.0
15/08:00am 23.7 21.4 14.1 55 5.6 ESE 19 32 10 17 1017.0 1016.9 0.0
15/07:30am 22.9 21.5 14.5 59 4.9 ESE 15 20 8 11 1016.9 1016.8 0.0
15/07:00am 22.0 20.6 14.6 63 4.4 ESE 15 24 8 13 1016.7 1016.6 0.0
15/06:30am 21.6 19.6 13.8 61 4.5 ESE 17 24 9 13 1016.2 1016.1 0.0
15/06:00am 21.8 19.7 13.7 60 4.7 ESE 17 28 9 15 1015.9 1015.8 0.0
15/05:30am 22.0 19.6 12.8 56 5.2 ESE 17 22 9 12 1015.8 1015.7 0.0
15/05:00am 22.3 19.1 12.0 52 5.8 ESE 20 28 11 15 1015.7 1015.6 0.0
15/04:30am 22.5 19.3 11.9 51 6.0 ESE 20 30 11 16 1015.6 1015.5 0.0
15/04:00am 22.7 18.9 11.1 48 6.4 ESE 22 33 12 18 1015.3 1015.1 0.0
15/03:30am 23.1 19.3 11.2 47 6.6 ESE 22 35 12 19 1015.3 1015.1 0.0
15/03:00am 23.3 19.7 12.0 49 6.4 ESE 22 32 12 17 1015.4 1015.2 0.0
15/02:30am 23.7 19.8 12.0 48 6.6 ESE 24 37 13 20 1015.6 1015.5 0.0
15/02:00am 23.8 21.1 13.6 52 5.9 ESE 20 35 11 19 1015.7 1015.6 0.0
15/01:30am 23.8 21.7 16.3 63 4.6 ESE 22 35 12 19 1015.9 1015.8 0.0
15/01:00am 24.4 22.1 15.6 58 5.3 ESE 22 35 12 19 1015.9 1015.8 0.0
15/12:30am 24.9 23.1 16.9 61 4.9 ESE 22 33 12 18 1016.1 1016.0 0.0
15/12:00am 24.9 24.4 19.1 70 3.7 E 20 30 11 16 1016.0 1015.9 0.0
 
Date/Time
CST
Temp
°C
App
Temp
°C
Dew
Point
°C
Rel
Hum
%
Delta-T
°C
Wind Press
QNH
hPa
Press
MSL
hPa
Rain since
9am
mm
Dir  Spd
km/h
Gust
km/h
Spd
kts
Gust
kts
14/11:30pm 25.0 24.9 20.0 74 3.2 E 20 32 11 17 1016.1 1016.0 0.0
14/11:00pm 25.1 25.1 19.7 72 3.5 E 19 26 10 14 1016.2 1016.1 0.0
14/10:30pm 25.0 25.7 20.5 76 2.9 E 17 26 9 14 1016.2 1016.1 0.0
14/10:00pm 24.9 26.9 20.8 78 2.7 ENE 11 22 6 12 1016.3 1016.2 0.0
14/09:30pm 24.9 26.5 20.8 78 2.7 ENE 13 20 7 11 1015.9 1015.8 0.0
14/09:00pm 24.9 27.2 20.6 77 2.8 E 9 13 5 7 1015.8 1015.7 0.0
14/08:30pm 25.0 26.9 20.5 76 2.9 ENE 11 20 6 11 1015.6 1015.5 0.0
14/08:00pm 24.9 27.2 20.6 77 2.8 ENE 9 19 5 10 1015.4 1015.2 0.0
14/07:30pm 24.9 27.3 20.8 78 2.7 ENE 9 17 5 9 1014.9 1014.7 0.0
14/07:00pm 25.0 26.9 20.5 76 2.9 ENE 11 20 6 11 1014.6 1014.4 0.0
14/06:30pm 25.3 27.0 20.1 73 3.4 ENE 11 20 6 11 1014.3 1014.1 0.0
14/06:00pm 25.7 26.6 19.3 67 4.1 NE 13 22 7 12 1014.0 1013.8 0.0
14/05:30pm 26.6 27.5 19.2 64 4.8 ENE 13 30 7 16 1013.7 1013.5 0.0
14/05:00pm 27.2 28.0 19.0 61 5.3 ENE 13 28 7 15 1013.8 1013.6 0.0
14/04:30pm 27.4 27.3 18.7 59 5.6 ENE 17 32 9 17 1013.8 1013.6 0.0
14/04:00pm 28.3 28.3 18.1 54 6.5 ENE 15 32 8 17 1013.7 1013.5 0.0
14/03:30pm 28.0 26.8 17.5 52 6.6 ENE 20 30 11 16 1013.9 1013.7 0.0
14/03:00pm 29.1 28.0 17.3 49 7.4 ENE 19 33 10 18 1014.1 1013.9 0.0
14/02:30pm 28.6 27.3 17.2 50 7.2 ENE 20 33 11 18 1014.5 1014.3 0.0
14/02:00pm 28.0 26.3 17.2 52 6.8 ENE 22 39 12 21 1014.9 1014.7 0.0
14/01:30pm 28.1 26.6 16.7 50 7.1 E 20 33 11 18 1015.3 1015.1 0.0
14/01:00pm 27.9 26.4 16.8 50 6.9 E 20 33 11 18 1015.9 1015.8 0.0
14/12:30pm 27.8 25.4 16.4 50 7.1 E 24 35 13 19 1016.6 1016.5 0.0
14/12:00pm 27.7 24.9 16.3 49 7.0 E 26 37 14 20 1017.0 1016.9 0.0
14/11:30am 28.1 26.2 16.7 50 7.1 E 22 32 12 17 1017.4 1017.3 0.0
14/11:00am 27.6 25.9 17.2 53 6.5 E 22 32 12 17 1017.5 1017.4 0.0
14/10:30am 28.0 25.7 15.6 46 7.6 E 22 35 12 19 1017.6 1017.5 0.0
14/10:00am 26.8 25.0 16.1 52 6.6 E 20 28 11 15 1017.9 1017.8 0.0
14/09:30am 26.8 25.8 16.7 54 6.3 E 17 24 9 13 1018.1 1018.0 0.0
14/09:00am 25.0 24.1 15.9 57 5.5 ESE 15 24 8 13 1018.1 1018.0 0.0
14/08:30am 23.9 23.3 16.7 64 4.4 ESE 15 26 8 14 1018.0 1017.9 0.0
14/08:00am 23.5 23.2 16.5 65 4.3 SE 13 20 7 11 1017.8 1017.7 0.0
14/07:30am 22.9 23.2 17.1 70 3.6 SE 11 13 6 7 1017.5 1017.4 0.0
14/07:00am 21.8 22.6 17.4 76 2.7 SE 9 13 5 7 1017.2 1017.1 0.0
14/06:30am 21.5 22.5 17.7 79 2.3 ESE 9 19 5 10 1017.0 1016.9 0.0
14/06:00am 21.6 21.5 17.8 79 2.4 ESE 15 20 8 11 1016.8 1016.7 0.0
14/05:30am 21.7 21.7 18.1 80 2.2 SE 15 24 8 13 1016.7 1016.6 0.0
14/05:00am 22.0 21.0 18.0 78 2.5 ESE 20 32 11 17 1016.6 1016.5 0.0
14/04:30am 22.2 20.7 16.7 71 3.4 ESE 20 30 11 16 1016.4 1016.3 0.0
14/04:00am 22.3 21.2 16.3 69 3.6 ESE 17 24 9 13 1016.1 1016.0 0.0
14/03:30am 22.3 21.1 16.1 68 3.7 SE 17 24 9 13 1016.0 1015.9 0.0
14/03:00am 22.9 21.8 16.4 67 4.0 ESE 17 26 9 14 1016.3 1016.2 0.0
14/02:30am 23.3 21.8 16.8 67 4.0 ESE 20 35 11 19 1016.4 1016.3 0.0
14/02:00am 24.0 21.8 16.8 64 4.4 ESE 24 39 13 21 1016.4 1016.3 0.0
14/01:30am 24.3 21.6 16.6 62 4.7 ESE 26 39 14 21 1016.6 1016.5 0.0
14/01:00am 24.8 22.8 16.5 60 5.1 ESE 22 35 12 19 1016.6 1016.5 0.0
14/12:30am 24.8 24.0 18.5 68 4.0 ESE 20 30 11 16 1016.7 1016.6 0.0
14/12:00am 24.6 24.9 20.3 77 2.8 E 19 26 10 14 1016.8 1016.7 0.0
 
Date/Time
CST
Temp
°C
App
Temp
°C
Dew
Point
°C
Rel
Hum
%
Delta-T
°C
Wind Press
QNH
hPa
Press
MSL
hPa
Rain since
9am
mm
Dir  Spd
km/h
Gust
km/h
Spd
kts
Gust
kts
13/11:30pm 24.8 24.8 20.9 79 2.6 E 22 33 12 18 1016.9 1016.8 0.0
13/11:00pm 24.9 24.8 20.8 78 2.7 E 22 32 12 17 1017.0 1016.9 0.0
13/10:30pm 24.8 25.8 21.1 80 2.4 E 17 24 9 13 1017.1 1017.0 0.0
13/10:00pm 24.9 25.3 20.6 77 2.8 E 19 28 10 15 1017.0 1016.9 0.0
13/09:30pm 24.8 25.9 20.5 77 2.8 ENE 15 24 8 13 1016.9 1016.8 0.0
13/09:00pm 24.9 26.4 20.6 77 2.8 ENE 13 24 7 13 1016.6 1016.5 0.0
13/08:30pm 25.0 26.7 20.9 78 2.7 ENE 13 20 7 11 1016.3 1016.2 0.0
13/08:00pm 24.9 26.8 20.6 77 2.8 ENE 11 15 6 8 1016.0 1015.9 0.0
13/07:30pm 25.0 27.0 20.7 77 2.8 ENE 11 19 6 10 1015.7 1015.6 0.0
13/07:00pm 25.0 26.6 20.0 74 3.2 ENE 11 19 6 10 1015.3 1015.1 0.0
13/06:30pm 25.3 26.8 19.7 71 3.6 ENE 11 20 6 11 1014.8 1014.6 0.0
13/06:00pm 25.8 26.4 18.7 65 4.5 ENE 13 24 7 13 1014.4 1014.2 0.0
13/05:30pm 26.8 27.2 18.1 59 5.5 ENE 13 22 7 12 1014.1 1013.9 0.0
13/05:00pm 27.2 26.7 17.7 56 6.0 ENE 17 28 9 15 1014.0 1013.8 0.0
13/04:30pm 28.0 27.6 17.2 52 6.8 ENE 15 26 8 14 1013.9 1013.7 0.0
13/04:00pm 28.4 27.7 16.3 47 7.5 ENE 15 24 8 13 1013.9 1013.7 0.0
13/03:30pm 28.8 28.1 16.4 47 7.7 ENE 15 24 8 13 1014.0 1013.8 0.0
13/03:00pm 29.4 28.1 15.9 44 8.4 ENE 17 24 9 13 1014.2 1014.0 0.0
13/02:30pm 28.4 27.1 16.7 49 7.3 ENE 19 30 10 16 1014.7 1014.5 0.0
13/02:00pm 28.7 27.4 16.9 48 7.4 ENE 19 32 10 17 1015.3 1015.1 0.0
13/01:30pm 28.6 27.1 16.8 48 7.4 E 20 32 11 17 1015.7 1015.6 0.0
13/01:00pm 28.2 26.2 16.5 49 7.3 E 22 33 12 18 1016.3 1016.2 0.0
13/12:30pm 28.9 27.8 17.7 50 7.1 E 20 30 11 16 1017.0 1016.9 0.0
13/12:00pm 28.2 25.5 16.5 49 7.3 E 26 35 14 19 1017.3 1017.2 0.0
13/11:30am 28.6 26.7 15.8 45 7.9 E 20 28 11 15 1017.8 1017.7 0.0
13/11:00am 28.6 26.8 13.3 39 9.1 E 15 22 8 12 1018.2 1018.1 0.0
13/10:30am 28.5 25.3 12.0 36 9.6 ESE 20 28 11 15 1018.4 1018.3 0.0
13/10:00am 27.4 24.2 11.8 38 9.0 ESE 20 32 11 17 1018.6 1018.5 0.0

Other formats

Comma delimited format used in spreadsheet applications
http://www.bom.gov.au/fwo/IDD60801/IDD60801.94139.axf

JavaScript Object Notation format (JSON) in row-major order
http://www.bom.gov.au/fwo/IDD60801/IDD60801.94139.json

Data quality

Most of these data are generated automatically and are frequently updated. Quality checks on data are not normally performed. It is possible for incorrect values to appear. Refer to information at About Latest Weather Observations and please check the disclaimer before using these data.